Time;durP1;ratioP1;P1;durP2;ratioP2;P2;SDS_P1;SDS_P2;PMS_P1;PMS_P2;Temp;Humidity;BMP_temperature;BMP_pressure;BME280_temperature;BME280_humidity;BME280_pressure;Samples;Min_cycle;Max_cycle;Signal;HPM_P1;HPM_P2
2022/01/14 00:00:04;;;;;;;31.27;17.50;;;5.60;99.90;;;;;;5123103;27;20073;-85
2022/01/14 00:02:30;;;;;;;34.08;17.25;;;5.60;99.90;;;;;;5107840;27;20039;-85
2022/01/14 00:04:55;;;;;;;34.83;17.65;;;5.60;99.90;;;;;;5100870;27;20166;-84
2022/01/14 00:07:21;;;;;;;32.30;17.38;;;5.60;99.90;;;;;;5100457;27;20039;-85
2022/01/14 00:09:47;;;;;;;30.83;15.95;;;5.60;99.90;;;;;;5116739;27;20393;-85
2022/01/14 00:12:23;;;;;;;31.55;16.33;;;5.70;99.90;;;;;;5126124;27;20039;-85
2022/01/14 00:15:23;;;;;;;30.60;16.70;;;5.70;99.90;;;;;;5116718;27;20046;-86
2022/01/14 00:17:46;;;;;;;34.30;17.33;;;5.70;99.90;;;;;;5112506;27;20046;-85
2022/01/14 00:20:12;;;;;;;37.35;17.63;;;5.70;99.90;;;;;;5126528;27;20031;-85
2022/01/14 00:22:38;;;;;;;33.25;18.05;;;5.70;99.90;;;;;;5116582;27;20039;-85
2022/01/14 00:33:06;;;;;;;29.15;15.82;;;5.60;99.90;;;;;;5117162;27;20051;-85
2022/01/14 00:35:33;;;;;;;28.80;15.48;;;5.60;99.90;;;;;;5116890;27;20106;-85
2022/01/14 00:37:59;;;;;;;31.67;16.30;;;5.70;99.90;;;;;;5106121;27;20114;-84
2022/01/14 00:40:25;;;;;;;35.20;16.65;;;5.60;99.90;;;;;;5108130;27;20127;-85
2022/01/14 00:42:51;;;;;;;34.10;15.93;;;5.60;99.90;;;;;;5121615;27;20458;-85
2022/01/14 00:45:17;;;;;;;32.50;15.07;;;5.70;99.90;;;;;;5127410;27;20035;-86
2022/01/14 00:47:44;;;;;;;29.52;14.77;;;5.70;99.90;;;;;;5114862;27;20030;-85
2022/01/14 00:50:12;;;;;;;27.50;15.48;;;5.70;99.90;;;;;;5121141;27;20043;-86
2022/01/14 00:52:39;;;;;;;31.90;15.07;;;5.70;99.90;;;;;;5105322;27;20040;-85
2022/01/14 00:55:07;;;;;;;31.92;15.95;;;5.70;99.90;;;;;;5087136;27;20039;-85
2022/01/14 01:00:19;;;;;;;28.80;15.15;;;5.70;99.90;;;;;;5108937;28;20118;-85
2022/01/14 01:02:44;;;;;;;32.13;15.32;;;5.70;99.90;;;;;;5103367;27;20054;-85
2022/01/14 01:05:13;;;;;;;26.58;14.02;;;5.70;99.90;;;;;;5109760;27;20423;-84
2022/01/14 01:07:40;;;;;;;27.58;14.80;;;5.60;99.90;;;;;;5105526;27;20030;-85
2022/01/14 01:10:07;;;;;;;29.08;14.35;;;5.60;99.90;;;;;;5124966;27;20035;-85
2022/01/14 01:12:41;;;;;;;28.92;14.68;;;5.60;99.90;;;;;;5097151;27;20058;-85
2022/01/14 01:15:11;;;;;;;25.13;15.65;;;5.50;99.90;;;;;;5108895;27;20027;-85
2022/01/14 01:17:37;;;;;;;30.27;15.63;;;5.50;99.90;;;;;;5133053;27;20572;-85
2022/01/14 01:20:12;;;;;;;34.97;16.42;;;5.50;99.90;;;;;;5111525;27;20415;-84
2022/01/14 01:22:39;;;;;;;31.08;16.05;;;5.50;99.90;;;;;;5106741;27;20050;-85
2022/01/14 01:25:05;;;;;;;32.85;17.20;;;5.50;99.90;;;;;;5108141;27;20126;-85
2022/01/14 01:27:37;;;;;;;36.67;17.95;;;5.40;99.90;;;;;;5128888;27;20042;-85
2022/01/14 01:30:16;;;;;;;39.25;17.60;;;5.40;99.90;;;;;;5117493;27;20039;-85
2022/01/14 01:32:46;;;;;;;31.63;17.60;;;5.40;99.90;;;;;;5097706;27;20126;-85
2022/01/14 01:35:16;;;;;;;32.90;18.23;;;5.40;99.90;;;;;;5119715;27;20031;-85
2022/01/14 01:37:42;;;;;;;39.35;19.70;;;5.40;99.90;;;;;;5124347;27;20031;-85
2022/01/14 01:40:09;;;;;;;43.03;20.25;;;5.40;99.90;;;;;;5111484;27;20433;-85
2022/01/14 01:42:34;;;;;;;35.63;18.77;;;5.40;99.90;;;;;;5100291;27;20076;-85
2022/01/14 01:45:00;;;;;;;34.40;18.77;;;5.40;99.90;;;;;;5102539;27;20046;-85
2022/01/14 01:47:27;;;;;;;32.88;18.20;;;5.40;99.90;;;;;;5151764;27;20038;-85
2022/01/14 01:49:53;;;;;;;40.60;19.98;;;5.30;99.90;;;;;;5110925;27;20043;-85
2022/01/14 01:52:19;;;;;;;40.92;20.50;;;5.40;99.90;;;;;;5120033;27;20045;-85
2022/01/14 01:54:44;;;;;;;39.88;20.33;;;5.40;99.90;;;;;;5134784;27;20027;-85
2022/01/14 01:57:10;;;;;;;41.85;20.23;;;5.40;99.90;;;;;;5115383;27;20090;-85
2022/01/14 01:59:35;;;;;;;41.28;19.88;;;5.40;99.90;;;;;;5127393;27;20400;-85
2022/01/14 02:02:01;;;;;;;36.38;19.65;;;5.40;99.90;;;;;;5139340;27;20099;-85
2022/01/14 02:04:28;;;;;;;36.13;19.55;;;5.40;99.90;;;;;;5114434;27;20043;-85
2022/01/14 02:06:55;;;;;;;44.85;20.00;;;5.40;99.90;;;;;;5098998;27;20043;-85
2022/01/14 02:09:21;;;;;;;40.90;19.73;;;5.40;99.90;;;;;;5117950;27;20066;-85
2022/01/14 02:11:47;;;;;;;36.72;19.70;;;5.40;99.90;;;;;;5120210;27;20038;-85
2022/01/14 02:14:28;;;;;;;38.78;19.98;;;5.40;99.90;;;;;;5123525;27;20035;-84
2022/01/14 02:17:15;;;;;;;39.78;20.02;;;5.40;99.90;;;;;;5134607;27;20030;-85
2022/01/14 02:22:10;;;;;;;40.20;19.23;;;5.40;99.90;;;;;;5116423;27;20086;-85
2022/01/14 02:22:46;;;;;;;42.38;19.95;;;5.40;99.90;;;;;;5099457;28;20431;-85
2022/01/14 02:25:12;;;;;;;37.60;19.98;;;5.40;99.90;;;;;;5098258;27;20053;-85
2022/01/14 02:27:37;;;;;;;40.95;21.40;;;5.50;99.90;;;;;;5109448;27;20038;-85
2022/01/14 02:30:05;;;;;;;42.55;20.23;;;5.40;99.90;;;;;;5123053;27;20395;-84
2022/01/14 02:32:30;;;;;;;37.58;19.45;;;5.50;99.90;;;;;;5113873;27;20110;-85
2022/01/14 02:34:56;;;;;;;45.72;20.08;;;5.50;99.90;;;;;;5113623;27;20043;-85
2022/01/14 02:37:23;;;;;;;40.25;19.85;;;5.60;99.90;;;;;;5097468;27;20027;-85
2022/01/14 02:39:48;;;;;;;39.70;20.08;;;5.50;99.90;;;;;;5105149;27;20027;-86
2022/01/14 02:42:14;;;;;;;34.90;19.52;;;5.50;99.90;;;;;;5134396;27;20086;-85
2022/01/14 02:44:40;;;;;;;42.55;20.20;;;5.60;99.90;;;;;;5127695;28;20046;-84
2022/01/14 02:47:06;;;;;;;38.00;21.25;;;5.60;99.90;;;;;;5113650;28;20073;-85
2022/01/14 02:49:34;;;;;;;41.80;20.70;;;5.60;99.90;;;;;;5122733;27;20388;-85
2022/01/14 02:52:03;;;;;;;37.70;20.55;;;5.60;99.90;;;;;;5098905;28;20128;-85
2022/01/14 02:54:39;;;;;;;32.53;19.63;;;5.60;99.90;;;;;;5100489;27;20038;-85
2022/01/14 02:57:08;;;;;;;37.85;20.92;;;5.60;99.90;;;;;;5130743;27;20062;-85
2022/01/14 02:59:35;;;;;;;47.25;21.10;;;5.60;99.90;;;;;;5114219;27;20059;-85
2022/01/14 03:02:02;;;;;;;40.65;21.90;;;5.70;99.90;;;;;;5096931;28;20047;-85
2022/01/14 03:04:29;;;;;;;48.00;20.48;;;5.70;99.90;;;;;;5115332;27;20401;-85
2022/01/14 03:06:55;;;;;;;37.50;19.90;;;5.80;99.90;;;;;;5109368;27;20496;-85
2022/01/14 03:09:20;;;;;;;36.72;19.63;;;5.70;99.90;;;;;;5117926;27;20045;-85
2022/01/14 03:11:49;;;;;;;41.78;20.92;;;5.70;99.90;;;;;;5107414;27;20088;-85
2022/01/14 03:14:24;;;;;;;36.80;20.27;;;5.70;99.90;;;;;;5117685;27;20574;-85
2022/01/14 03:16:51;;;;;;;41.67;20.40;;;5.70;99.90;;;;;;5100924;27;20113;-84
2022/01/14 03:19:21;;;;;;;37.60;21.40;;;5.70;99.90;;;;;;5136411;27;20041;-84
2022/01/14 03:21:50;;;;;;;40.30;20.70;;;5.70;99.90;;;;;;5101662;27;20113;-85
2022/01/14 03:25:36;;;;;;;39.72;20.40;;;5.70;99.90;;;;;;5137289;27;20095;-85
2022/01/14 03:27:08;;;;;;;38.45;20.13;;;5.70;99.90;;;;;;5128380;27;20103;-84
2022/01/14 03:29:33;;;;;;;38.67;20.17;;;5.70;99.90;;;;;;5117400;27;20035;-84
2022/01/14 03:31:59;;;;;;;40.33;20.95;;;5.70;99.90;;;;;;5109756;27;20176;-85
2022/01/14 03:34:24;;;;;;;36.92;19.98;;;5.70;99.90;;;;;;5132765;27;20034;-85
2022/01/14 03:36:51;;;;;;;44.50;21.13;;;5.70;99.90;;;;;;5119109;27;20054;-85
2022/01/14 03:39:17;;;;;;;40.45;21.60;;;5.70;99.90;;;;;;5106490;27;20031;-86
2022/01/14 03:41:43;;;;;;;35.33;20.73;;;5.70;99.90;;;;;;5116998;27;20027;-85
2022/01/14 03:44:09;;;;;;;42.80;22.08;;;5.70;99.90;;;;;;5115930;27;20033;-85
2022/01/14 03:46:35;;;;;;;41.75;20.52;;;5.70;99.90;;;;;;5121310;27;20428;-85
2022/01/14 03:49:00;;;;;;;37.58;19.70;;;5.70;99.90;;;;;;5112629;27;20050;-85
2022/01/14 03:51:28;;;;;;;37.65;20.23;;;5.70;99.90;;;;;;5116502;27;20396;-85
2022/01/14 03:53:54;;;;;;;43.75;21.27;;;5.70;99.90;;;;;;5127791;27;20034;-85
2022/01/14 03:56:21;;;;;;;42.28;20.70;;;5.80;99.90;;;;;;5119188;27;20049;-85
2022/01/14 03:58:46;;;;;;;42.45;21.23;;;5.80;99.90;;;;;;5130437;27;20519;-85
2022/01/14 04:01:13;;;;;;;37.42;20.15;;;5.80;99.90;;;;;;5120975;27;20031;-85
2022/01/14 04:03:40;;;;;;;44.35;19.83;;;5.70;99.90;;;;;;5123831;27;20050;-85
2022/01/14 04:06:06;;;;;;;38.55;20.17;;;5.70;99.90;;;;;;5117712;27;20050;-85
2022/01/14 04:08:32;;;;;;;39.60;20.67;;;5.80;99.90;;;;;;5098751;28;20044;-85
2022/01/14 04:11:00;;;;;;;44.90;19.33;;;5.80;99.90;;;;;;5094014;28;20127;-85
2022/01/14 04:16:23;;;;;;;43.78;19.65;;;5.70;99.90;;;;;;5123548;27;20087;-85
2022/01/14 04:18:50;;;;;;;38.90;19.38;;;5.80;99.90;;;;;;5118290;27;20113;-85
2022/01/14 04:21:15;;;;;;;37.42;20.02;;;5.80;99.90;;;;;;5117844;27;20075;-85
2022/01/14 04:23:41;;;;;;;41.50;20.45;;;5.80;99.90;;;;;;5112578;27;20551;-85
2022/01/14 04:26:07;;;;;;;38.17;19.50;;;5.80;99.90;;;;;;5119577;27;20039;-85
2022/01/14 04:28:36;;;;;;;38.85;19.90;;;5.80;99.90;;;;;;5107416;27;20495;-85
2022/01/14 04:31:03;;;;;;;38.83;19.58;;;5.80;99.90;;;;;;5117986;27;20087;-85
2022/01/14 04:33:31;;;;;;;40.00;19.42;;;5.80;99.90;;;;;;5123859;27;20039;-85
2022/01/14 04:35:58;;;;;;;35.28;19.08;;;5.70;99.90;;;;;;5117214;27;20062;-85
2022/01/14 04:38:25;;;;;;;40.50;20.88;;;5.80;99.90;;;;;;5116318;27;20042;-85
2022/01/14 04:40:51;;;;;;;37.97;19.48;;;5.70;99.90;;;;;;5117730;27;20480;-85
2022/01/14 04:43:19;;;;;;;39.42;20.65;;;5.80;99.90;;;;;;5104758;27;20049;-85
2022/01/14 04:48:32;;;;;;;36.35;19.35;;;5.70;99.90;;;;;;5115798;27;20043;-84
2022/01/14 04:50:59;;;;;;;34.63;20.13;;;5.60;99.90;;;;;;5099024;27;20050;-84
2022/01/14 04:53:25;;;;;;;40.10;20.35;;;5.60;99.90;;;;;;5116554;27;20123;-84
2022/01/14 04:55:51;;;;;;;36.58;20.05;;;5.60;99.90;;;;;;5115027;27;20035;-85
2022/01/14 04:58:17;;;;;;;39.25;19.83;;;5.60;99.90;;;;;;5115836;27;20053;-85
2022/01/14 05:00:43;;;;;;;32.35;19.65;;;5.60;99.90;;;;;;5134171;27;20117;-85
2022/01/14 05:03:09;;;;;;;39.53;20.92;;;5.80;99.90;;;;;;5109655;27;20534;-84
2022/01/14 05:05:38;;;;;;;46.28;21.95;;;5.60;99.90;;;;;;5116761;27;20492;-86
2022/01/14 05:08:09;;;;;;;34.75;20.05;;;5.70;99.90;;;;;;5098716;27;20043;-85
2022/01/14 05:10:47;;;;;;;35.17;20.80;;;5.70;99.90;;;;;;5098202;27;20039;-85
2022/01/14 05:13:13;;;;;;;39.72;20.73;;;5.70;99.90;;;;;;5122962;27;20474;-85
2022/01/14 05:15:38;;;;;;;37.70;21.63;;;5.70;99.90;;;;;;5128333;27;20059;-85
2022/01/14 05:18:04;;;;;;;36.00;21.60;;;5.70;99.90;;;;;;5115153;27;20114;-85
2022/01/14 05:20:30;;;;;;;39.20;20.42;;;5.70;99.90;;;;;;5098870;27;20042;-85
2022/01/14 05:22:55;;;;;;;36.28;20.83;;;5.70;99.90;;;;;;5119892;27;20035;-85
2022/01/14 05:25:21;;;;;;;41.65;21.48;;;5.70;99.90;;;;;;5128552;27;20045;-85
2022/01/14 05:27:46;;;;;;;39.45;21.45;;;5.60;99.90;;;;;;5134701;27;20495;-85
2022/01/14 05:30:14;;;;;;;38.72;21.10;;;5.60;99.90;;;;;;5116496;27;20034;-85
2022/01/14 05:32:48;;;;;;;36.17;20.27;;;5.60;99.90;;;;;;5133638;27;20110;-85
2022/01/14 05:35:17;;;;;;;39.35;20.90;;;5.60;99.90;;;;;;5133769;27;20053;-85
2022/01/14 05:37:43;;;;;;;40.75;21.33;;;5.60;99.90;;;;;;5132648;27;20175;-85
2022/01/14 05:40:09;;;;;;;43.28;21.85;;;5.50;99.90;;;;;;5135283;27;20091;-84
2022/01/14 05:42:36;;;;;;;36.15;22.13;;;5.50;99.90;;;;;;5113356;27;20470;-86
2022/01/14 05:45:06;;;;;;;41.08;21.88;;;5.60;99.90;;;;;;5098097;27;20039;-85
2022/01/14 05:47:31;;;;;;;43.33;22.13;;;5.60;99.90;;;;;;5116100;27;20523;-86
2022/01/14 05:49:57;;;;;;;49.15;23.15;;;5.60;99.90;;;;;;5116473;27;20070;-84
2022/01/14 05:52:22;;;;;;;47.05;23.20;;;5.50;99.90;;;;;;5119436;27;20209;-85
2022/01/14 05:54:51;;;;;;;41.42;22.23;;;5.60;99.90;;;;;;5114461;27;20476;-85
2022/01/14 05:57:17;;;;;;;39.90;22.50;;;5.60;99.90;;;;;;5117487;27;20385;-86
2022/01/14 05:59:43;;;;;;;42.60;22.90;;;5.60;99.90;;;;;;5124343;27;20042;-85
2022/01/14 06:02:08;;;;;;;38.88;21.75;;;5.60;99.90;;;;;;5112869;27;20070;-85
2022/01/14 06:04:34;;;;;;;42.28;23.30;;;5.60;99.90;;;;;;5134556;27;20082;-85
2022/01/14 06:07:01;;;;;;;39.40;22.15;;;5.60;99.90;;;;;;5118402;27;20095;-85
2022/01/14 06:09:26;;;;;;;38.97;20.55;;;5.60;99.90;;;;;;5115651;27;20051;-84
2022/01/14 06:11:52;;;;;;;38.33;22.05;;;5.60;99.90;;;;;;5111466;27;20125;-85
2022/01/14 06:14:17;;;;;;;38.05;22.27;;;5.60;99.90;;;;;;5117660;27;20041;-85
2022/01/14 06:16:43;;;;;;;37.78;22.20;;;5.60;99.90;;;;;;5117621;27;20430;-85
2022/01/14 06:19:08;;;;;;;37.20;21.48;;;5.60;99.90;;;;;;5098746;27;20085;-85
2022/01/14 06:21:34;;;;;;;40.17;20.45;;;5.60;99.90;;;;;;5127809;27;20516;-84
2022/01/14 06:23:59;;;;;;;37.95;20.90;;;5.60;99.90;;;;;;5133316;27;20038;-84
2022/01/14 06:26:25;;;;;;;43.95;20.90;;;5.60;99.90;;;;;;5118173;27;20492;-85
2022/01/14 06:28:51;;;;;;;44.38;21.65;;;5.70;99.90;;;;;;5096362;27;20042;-85
2022/01/14 06:31:16;;;;;;;34.67;18.88;;;5.70;99.90;;;;;;5111120;27;20046;-85
2022/01/14 06:33:42;;;;;;;33.75;19.10;;;5.70;99.90;;;;;;5097663;28;20070;-85
2022/01/14 06:36:08;;;;;;;36.35;19.30;;;5.70;99.90;;;;;;5103714;27;20195;-85
2022/01/14 06:38:33;;;;;;;37.08;18.50;;;5.80;99.90;;;;;;5114089;27;20035;-85
2022/01/14 06:40:59;;;;;;;34.60;19.92;;;5.80;99.90;;;;;;5094482;28;20046;-85
2022/01/14 06:43:25;;;;;;;36.28;18.50;;;5.80;99.90;;;;;;5101294;28;20043;-85
2022/01/14 06:45:50;;;;;;;35.13;17.73;;;5.80;99.90;;;;;;5104697;28;20047;-85
2022/01/14 06:48:16;;;;;;;33.28;18.50;;;5.80;99.90;;;;;;5092776;28;20118;-85
2022/01/14 06:50:41;;;;;;;33.70;19.00;;;5.90;99.90;;;;;;5100960;28;20031;-85
2022/01/14 06:53:07;;;;;;;33.95;18.38;;;5.80;99.90;;;;;;5108544;28;20039;-85
2022/01/14 06:55:32;;;;;;;29.80;16.88;;;5.90;99.90;;;;;;5096840;28;20047;-85
2022/01/14 06:57:58;;;;;;;28.63;17.20;;;5.90;99.90;;;;;;5098225;28;20031;-84
2022/01/14 07:00:24;;;;;;;37.78;17.08;;;5.90;99.90;;;;;;5113927;28;20046;-85
2022/01/14 07:02:50;;;;;;;33.05;17.38;;;5.90;99.90;;;;;;5118431;28;20122;-84
2022/01/14 07:05:15;;;;;;;33.33;17.98;;;5.90;99.90;;;;;;5118009;27;20464;-85
2022/01/14 07:07:41;;;;;;;31.30;17.73;;;5.90;99.90;;;;;;5129218;27;20031;-84
2022/01/14 07:10:08;;;;;;;30.50;17.73;;;5.90;99.90;;;;;;5114664;27;20039;-85
2022/01/14 07:12:44;;;;;;;34.42;16.85;;;5.90;99.90;;;;;;5112086;28;20031;-85
2022/01/14 07:15:12;;;;;;;61.40;17.63;;;5.90;99.90;;;;;;5096635;28;20088;-85
2022/01/14 07:17:38;;;;;;;34.55;17.48;;;5.90;99.90;;;;;;5096109;28;20110;-85
2022/01/14 07:20:08;;;;;;;36.15;17.15;;;5.90;99.90;;;;;;5120307;27;20114;-84
2022/01/14 07:22:34;;;;;;;29.17;16.58;;;5.90;99.90;;;;;;5108468;27;20496;-84
2022/01/14 07:25:00;;;;;;;33.85;16.67;;;5.90;99.90;;;;;;5124403;27;20090;-84
2022/01/14 07:27:27;;;;;;;30.98;16.52;;;5.90;99.90;;;;;;5128276;27;20026;-84
2022/01/14 07:29:53;;;;;;;33.05;16.15;;;5.80;99.90;;;;;;5103821;27;20549;-84
2022/01/14 07:32:18;;;;;;;36.40;16.38;;;5.80;99.90;;;;;;5129923;27;20039;-84
2022/01/14 07:34:45;;;;;;;32.08;15.38;;;5.90;99.90;;;;;;5115605;27;20476;-84
2022/01/14 07:37:11;;;;;;;28.55;15.63;;;5.90;99.90;;;;;;5096730;28;20038;-84
2022/01/14 07:39:37;;;;;;;31.23;14.93;;;5.90;99.90;;;;;;5108791;27;20043;-85
2022/01/14 07:42:03;;;;;;;27.92;15.23;;;5.90;99.90;;;;;;5116516;27;20157;-84
2022/01/14 07:44:28;;;;;;;28.75;14.68;;;5.90;99.90;;;;;;5133858;27;20514;-84
2022/01/14 07:46:54;;;;;;;29.65;14.13;;;5.90;99.90;;;;;;5133934;27;20073;-85
2022/01/14 07:49:19;;;;;;;34.90;14.60;;;5.90;99.90;;;;;;5134502;27;20169;-84
2022/01/14 07:51:45;;;;;;;30.45;13.73;;;6.00;99.90;;;;;;5137349;27;20035;-86
2022/01/14 07:54:10;;;;;;;24.13;13.70;;;5.90;99.90;;;;;;5120315;27;20070;-85
2022/01/14 07:56:39;;;;;;;27.38;13.88;;;6.00;99.90;;;;;;5136933;27;20034;-85
2022/01/14 07:59:06;;;;;;;27.50;13.38;;;6.00;99.90;;;;;;5137009;27;20125;-83
2022/01/14 08:01:33;;;;;;;28.10;13.13;;;6.00;99.90;;;;;;5126913;27;20031;-84
2022/01/14 08:03:59;;;;;;;30.50;13.48;;;6.00;99.90;;;;;;5116546;27;20080;-85
2022/01/14 08:06:26;;;;;;;26.17;12.20;;;6.00;99.90;;;;;;5123895;27;20377;-84
2022/01/14 08:08:52;;;;;;;24.42;12.95;;;6.00;99.90;;;;;;5105226;27;20492;-85
2022/01/14 08:11:18;;;;;;;25.95;12.60;;;6.00;99.90;;;;;;5106309;27;20038;-84
2022/01/14 08:13:43;;;;;;;26.75;12.95;;;6.10;99.90;;;;;;5101592;27;20594;-84
2022/01/14 08:16:09;;;;;;;24.42;12.75;;;6.00;99.90;;;;;;5126967;27;20035;-84
2022/01/14 08:18:36;;;;;;;26.73;13.88;;;6.00;99.90;;;;;;5127614;27;20404;-84
2022/01/14 08:21:05;;;;;;;25.40;13.18;;;6.10;99.90;;;;;;5117444;27;20162;-83
2022/01/14 08:23:31;;;;;;;27.60;12.75;;;6.00;99.90;;;;;;5093732;27;20039;-84
2022/01/14 08:25:57;;;;;;;24.77;12.27;;;6.00;99.90;;;;;;5114001;27;20035;-84
2022/01/14 08:28:24;;;;;;;24.98;12.82;;;6.00;99.90;;;;;;5096285;27;20476;-83
2022/01/14 08:30:49;;;;;;;28.55;12.40;;;6.00;99.90;;;;;;5108100;27;20078;-84
2022/01/14 08:33:15;;;;;;;26.00;11.93;;;6.10;99.90;;;;;;5097928;27;20070;-84
2022/01/14 08:35:41;;;;;;;25.90;11.77;;;6.10;99.90;;;;;;5112616;27;20496;-84
2022/01/14 08:38:06;;;;;;;22.33;11.45;;;6.10;99.90;;;;;;5114530;27;20085;-84
2022/01/14 08:40:33;;;;;;;28.15;11.02;;;6.10;99.90;;;;;;5092699;27;20092;-84
2022/01/14 08:42:58;;;;;;;24.50;10.93;;;6.10;99.90;;;;;;5115884;27;20043;-84
2022/01/14 08:45:24;;;;;;;26.75;11.55;;;6.10;99.90;;;;;;5106526;28;20031;-84
2022/01/14 08:47:52;;;;;;;24.08;11.32;;;6.10;99.90;;;;;;5110516;28;20063;-84
2022/01/14 08:50:23;;;;;;;23.65;10.77;;;6.10;99.90;;;;;;5095017;28;20118;-84
2022/01/14 08:52:50;;;;;;;24.42;11.80;;;6.20;99.90;;;;;;5094950;28;20047;-84
2022/01/14 08:55:17;;;;;;;25.25;12.10;;;6.30;99.90;;;;;;5110064;27;20103;-84
2022/01/14 08:57:44;;;;;;;21.10;10.32;;;6.20;99.90;;;;;;5109347;27;20039;-83
2022/01/14 09:00:11;;;;;;;21.60;10.18;;;6.20;99.90;;;;;;5113947;27;20118;-84
2022/01/14 09:02:37;;;;;;;21.20;9.77;;;6.30;99.90;;;;;;5109551;28;20050;-84
2022/01/14 09:05:03;;;;;;;23.63;10.35;;;6.30;99.90;;;;;;5109498;27;20043;-84
2022/01/14 09:07:29;;;;;;;26.65;10.20;;;6.30;99.90;;;;;;5110682;28;20088;-83
2022/01/14 09:09:55;;;;;;;28.60;10.30;;;6.30;99.90;;;;;;5094913;28;20036;-84
2022/01/14 09:12:21;;;;;;;17.83;9.80;;;6.40;99.90;;;;;;5078342;28;20047;-85
2022/01/14 09:14:47;;;;;;;24.38;10.02;;;6.40;99.90;;;;;;5093787;28;20515;-83
2022/01/14 09:17:13;;;;;;;23.20;10.35;;;6.30;99.90;;;;;;5111432;28;20503;-84
2022/01/14 09:19:40;;;;;;;17.10;9.13;;;6.40;99.90;;;;;;5095242;28;20523;-83
2022/01/14 09:22:07;;;;;;;21.40;8.65;;;6.60;99.90;;;;;;5095116;28;20035;-84
2022/01/14 09:24:34;;;;;;;20.65;8.57;;;6.50;99.90;;;;;;5077784;28;20493;-84
2022/01/14 09:27:00;;;;;;;18.00;8.27;;;6.50;99.90;;;;;;5079556;28;20125;-84
2022/01/14 09:29:25;;;;;;;17.27;8.13;;;6.60;99.90;;;;;;5095117;28;20048;-83
2022/01/14 09:31:51;;;;;;;18.52;8.10;;;6.60;99.90;;;;;;5094789;28;20180;-84
2022/01/14 09:34:16;;;;;;;15.68;8.00;;;6.60;99.90;;;;;;5094541;28;20527;-84
2022/01/14 09:36:42;;;;;;;19.38;7.60;;;6.60;99.90;;;;;;5097168;27;20396;-83
2022/01/14 09:39:08;;;;;;;19.20;7.47;;;6.70;99.90;;;;;;5101095;27;20523;-84
2022/01/14 09:41:34;;;;;;;16.88;6.65;;;6.70;99.90;;;;;;5114472;27;20423;-84
2022/01/14 09:44:02;;;;;;;16.40;6.43;;;6.80;99.90;;;;;;5098090;27;20046;-84
2022/01/14 09:46:27;;;;;;;18.13;6.53;;;6.80;99.90;;;;;;5114821;27;20042;-83
2022/01/14 09:48:53;;;;;;;17.63;6.20;;;6.80;99.90;;;;;;5127108;27;20034;-84
2022/01/14 09:51:19;;;;;;;16.40;5.65;;;6.90;99.90;;;;;;5119738;27;20034;-84
2022/01/14 09:53:45;;;;;;;16.73;5.55;;;6.90;99.90;;;;;;5111869;27;20031;-83
2022/01/14 09:56:15;;;;;;;18.23;5.68;;;7.00;99.90;;;;;;5104849;27;20038;-84
2022/01/14 09:58:46;;;;;;;13.27;4.85;;;7.00;99.90;;;;;;5103242;28;20036;-84
2022/01/14 10:01:15;;;;;;;15.45;5.50;;;6.90;99.90;;;;;;5112896;27;20031;-84
2022/01/14 10:04:12;;;;;;;17.88;5.65;;;7.00;99.90;;;;;;5097842;27;20050;-84
2022/01/14 10:06:45;;;;;;;17.83;4.20;;;7.00;99.90;;;;;;5096674;28;20081;-84
2022/01/14 10:09:22;;;;;;;17.70;5.15;;;7.00;99.90;;;;;;5104096;28;20082;-84
2022/01/14 10:12:10;;;;;;;13.48;4.78;;;7.00;99.90;;;;;;5104457;27;20034;-84
2022/01/14 10:14:38;;;;;;;11.45;4.65;;;7.10;99.90;;;;;;5114277;27;20074;-84
2022/01/14 10:17:09;;;;;;;15.23;5.03;;;7.10;99.90;;;;;;5110685;27;20049;-84
2022/01/14 10:19:39;;;;;;;13.30;4.45;;;7.10;99.90;;;;;;5086073;28;20044;-83
2022/01/14 10:22:42;;;;;;;15.27;4.78;;;7.10;99.90;;;;;;5110711;27;20039;-84
2022/01/14 10:25:19;;;;;;;14.40;4.68;;;7.10;99.90;;;;;;5058435;28;20043;-84
2022/01/14 10:27:49;;;;;;;15.15;5.55;;;7.10;99.90;;;;;;5082245;28;20036;-83
2022/01/14 10:30:29;;;;;;;15.63;3.97;;;7.10;99.90;;;;;;5105878;28;20039;-84
2022/01/14 10:32:59;;;;;;;15.57;3.90;;;7.10;99.90;;;;;;5106989;27;20035;-83
2022/01/14 10:35:28;;;;;;;15.48;4.68;;;7.10;99.90;;;;;;5090495;27;20031;-83
2022/01/14 10:38:01;;;;;;;9.90;3.38;;;7.10;99.90;;;;;;5096541;27;20043;-84
2022/01/14 10:40:28;;;;;;;12.75;3.63;;;7.10;99.90;;;;;;5100295;27;20032;-83
2022/01/14 10:43:04;;;;;;;17.23;4.13;;;7.10;99.90;;;;;;5093035;27;20043;-84
2022/01/14 10:45:30;;;;;;;14.88;4.10;;;7.10;99.90;;;;;;5107176;28;20075;-84
2022/01/14 10:47:58;;;;;;;13.38;3.47;;;7.00;99.90;;;;;;5098343;28;20036;-83
2022/01/14 10:50:28;;;;;;;13.38;3.83;;;7.10;99.90;;;;;;5109479;28;20412;-83
2022/01/14 10:52:54;;;;;;;18.05;3.70;;;7.00;99.90;;;;;;5109293;28;20043;-83
2022/01/14 10:55:34;;;;;;;13.98;4.00;;;7.10;99.90;;;;;;5097077;28;20110;-84
2022/01/14 10:58:03;;;;;;;12.93;3.40;;;7.10;99.90;;;;;;5096936;28;20039;-83
2022/01/14 11:00:38;;;;;;;9.55;3.35;;;7.10;99.90;;;;;;5110132;28;20073;-84
2022/01/14 11:03:04;;;;;;;14.43;3.97;;;7.10;99.90;;;;;;5101013;28;20042;-84
2022/01/14 11:05:31;;;;;;;11.95;3.78;;;7.10;99.90;;;;;;5110138;28;20122;-84
2022/01/14 11:07:56;;;;;;;15.20;3.90;;;7.10;99.90;;;;;;5108421;28;20191;-84
2022/01/14 11:10:24;;;;;;;15.82;3.78;;;7.10;99.90;;;;;;5110441;28;20505;-84
2022/01/14 11:12:54;;;;;;;14.35;4.20;;;7.10;99.90;;;;;;5090886;28;20075;-84
2022/01/14 11:15:21;;;;;;;13.55;3.55;;;7.10;99.90;;;;;;5106968;28;20513;-84
2022/01/14 11:17:51;;;;;;;18.45;3.63;;;7.10;99.90;;;;;;5097235;28;20043;-83
2022/01/14 11:20:24;;;;;;;14.55;3.65;;;7.20;99.90;;;;;;5109173;28;20400;-83
2022/01/14 11:25:39;;;;;;;17.67;3.63;;;7.10;99.90;;;;;;5115445;27;20047;-83
2022/01/14 11:28:06;;;;;;;17.42;4.30;;;7.10;99.90;;;;;;5110802;28;20118;-84
2022/01/14 11:30:38;;;;;;;21.73;6.07;;;7.20;99.90;;;;;;5109840;27;20389;-83
2022/01/14 11:33:05;;;;;;;13.82;4.13;;;7.20;99.90;;;;;;5108008;28;20075;-83
2022/01/14 11:35:33;;;;;;;13.13;3.97;;;7.20;99.90;;;;;;5089611;28;20055;-83
2022/01/14 11:38:00;;;;;;;17.83;5.25;;;7.20;99.90;;;;;;5113956;28;20039;-83
2022/01/14 11:40:25;;;;;;;14.57;5.32;;;7.20;99.90;;;;;;5104263;28;20043;-83
2022/01/14 11:42:59;;;;;;;11.98;4.57;;;7.20;99.90;;;;;;5110624;28;20064;-83
2022/01/14 11:45:43;;;;;;;;;;;7.30;99.90;;;;;;5105900;27;20034;-83
2022/01/14 11:48:31;;;;;;;17.52;4.93;;;7.30;99.90;;;;;;5104828;27;19954;-83
2022/01/14 11:51:02;;;;;;;14.45;4.75;;;7.30;99.90;;;;;;5113968;28;20528;-83
2022/01/14 11:53:36;;;;;;;16.50;5.00;;;7.30;99.90;;;;;;5092471;28;20071;-83
2022/01/14 11:56:03;;;;;;;16.17;5.38;;;7.30;99.90;;;;;;5085412;27;20039;-83
2022/01/14 11:58:29;;;;;;;15.88;4.88;;;7.30;99.90;;;;;;5107127;27;20115;-83
2022/01/14 12:00:55;;;;;;;13.23;4.80;;;7.30;99.90;;;;;;5116941;27;20066;-83
2022/01/14 12:03:25;;;;;;;16.65;4.78;;;7.30;99.90;;;;;;5105476;27;20073;-82
2022/01/14 12:05:55;;;;;;;12.68;5.07;;;7.30;99.90;;;;;;5099622;27;20038;-83
2022/01/14 12:08:26;;;;;;;22.35;5.57;;;7.30;99.90;;;;;;5099902;27;20031;-83
2022/01/14 12:10:55;;;;;;;15.38;4.97;;;7.30;99.90;;;;;;5116911;27;20058;-83
2022/01/14 12:13:31;;;;;;;18.70;5.88;;;7.30;99.90;;;;;;5117354;27;20389;-83
2022/01/14 12:16:04;;;;;;;18.23;5.28;;;7.30;99.90;;;;;;5115989;27;20035;-83
2022/01/14 12:18:57;;;;;;;17.15;5.20;;;7.30;99.90;;;;;;5136342;27;20164;-83
2022/01/14 12:21:41;;;;;;;17.57;5.47;;;7.30;99.90;;;;;;5124010;27;20031;-83
2022/01/14 12:24:16;;;;;;;15.63;5.25;;;7.30;99.90;;;;;;5097021;27;20038;-83
2022/01/14 12:26:43;;;;;;;17.17;5.20;;;7.30;99.90;;;;;;5117826;27;20051;-82
2022/01/14 12:29:11;;;;;;;17.70;5.25;;;7.30;99.90;;;;;;5099631;27;20126;-83
2022/01/14 12:32:18;;;;;;;16.63;5.18;;;7.30;99.90;;;;;;5116419;27;20035;-83
2022/01/14 12:34:56;;;;;;;15.48;4.97;;;7.30;99.90;;;;;;5102518;27;20057;-83
2022/01/14 12:37:30;;;;;;;17.38;5.20;;;7.30;99.90;;;;;;5115918;27;20143;-83
2022/01/14 12:40:02;;;;;;;20.25;4.85;;;7.30;99.90;;;;;;5115990;27;20042;-83
2022/01/14 12:42:28;;;;;;;18.58;5.65;;;7.30;99.90;;;;;;5092073;27;20492;-83
2022/01/14 12:44:54;;;;;;;16.23;5.18;;;7.30;99.90;;;;;;5118628;27;20169;-82
2022/01/14 12:47:25;;;;;;;17.13;5.28;;;7.40;99.90;;;;;;5116800;27;20072;-83
2022/01/14 12:49:51;;;;;;;22.48;5.30;;;7.30;99.90;;;;;;5126228;27;20042;-83
2022/01/14 12:52:27;;;;;;;24.17;5.20;;;7.30;99.90;;;;;;5117191;27;20053;-82
2022/01/14 12:54:53;;;;;;;21.55;5.95;;;7.30;99.90;;;;;;5117566;27;20066;-82
2022/01/14 12:57:21;;;;;;;24.55;5.72;;;7.30;99.90;;;;;;5116516;27;20038;-83
2022/01/14 12:59:49;;;;;;;16.40;5.70;;;7.30;99.90;;;;;;5119098;27;20118;-83
2022/01/14 13:02:16;;;;;;;16.75;5.30;;;7.30;99.90;;;;;;5118358;27;20121;-82
2022/01/14 13:04:42;;;;;;;19.27;5.32;;;7.30;99.90;;;;;;5135629;27;20126;-83